Boeing747-400

羽田空港のR/W 16Lへ着陸するJALのBoeing747-400(JA8912)。
国際線機材でウィングレッドが付いている。
背景に羽田空港の新管制塔が見える。
D滑走路まで見渡せるように、旧管制塔よりかなり高い。
Boeing747-400(JA8912)
こちらは、Boeing747-400D(JA8908)。
国内線用。
Boeing747-400D(JA8908)
おまけで、「エコ・ジェット」Boeing777-200(JA8984)。
曇っていたせいで、尾翼の緑もくすんで見えた。。。
Boeing777-200(JA8984)
昨日の夕方、西のほうの雲が切れてきれいな夕焼けが見えたので、
今日の天気には若干の期待をしていた。
(天気予報は”曇り”だったが、最近の天気予報はよく外れるので。)
しかしながら、朝起きて窓の外を見てみると天気予報どおり”曇り”。
羽田のMETARを見てみると、
RJTT 102100Z 04008KT 9999 FEW025 SCT045 BKN/// 23/16 Q1009
(40度(北東)からの風、風速8ノット、視程は10km以上、 
2500ftに少しの雲 4500ftに散在している雲 上層にすき間のある雲
気温23℃、露点16℃、気圧は1009hPa (29.8インチ))
となっていて、雲はあるものの視程はよさそうだ。
悩むなぁ。。。
羽田のATISでは視程30kmと報じられている!
「日中は晴れ」の予報もTVで放送されていた。
羽田空港に行こう!(8:15追記)
今日も暑そう。。。
ブログのカラーも涼しげな配色に変えてみました。

コメントを残す

メールアドレスが公開されることはありません。

日本語が含まれない投稿は無視されますのでご注意ください。(スパム対策)